createdAt,value
2022-09-20T00:01:36.896Z,99659.11
2022-09-20T00:04:06.898Z,99660.13
2022-09-20T00:06:35.998Z,99661.77
2022-09-20T00:09:05.244Z,99660.36
2022-09-20T00:11:35.679Z,99664.89
2022-09-20T00:14:08.516Z,99660.20
2022-09-20T00:16:40.206Z,99659.73
2022-09-20T00:19:09.111Z,99656.64
2022-09-20T00:21:38.014Z,99656.33
2022-09-20T00:24:06.710Z,99659.06
2022-09-20T00:26:34.783Z,99658.48
2022-09-20T00:29:03.497Z,99658.09
2022-09-20T00:31:31.781Z,99653.87
2022-09-20T00:34:18.463Z,99654.32
2022-09-20T00:36:46.789Z,99650.77
2022-09-20T00:39:16.704Z,99650.97
2022-09-20T00:41:44.830Z,99650.72
2022-09-20T00:45:01.196Z,99647.88
2022-09-20T00:47:42.134Z,99652.05
2022-09-20T00:50:34.994Z,99651.42
2022-09-20T00:53:26.444Z,99648.35
2022-09-20T00:56:01.725Z,99646.55
2022-09-20T00:58:34.730Z,99644.61
2022-09-20T01:01:05.960Z,99643.27
2022-09-20T01:03:37.130Z,99638.33
2022-09-20T01:06:10.135Z,99635.63
2022-09-20T01:08:39.951Z,99636.23
2022-09-20T01:11:08.225Z,99632.20
2022-09-20T01:13:36.262Z,99618.94
2022-09-20T01:16:06.535Z,99621.70
2022-09-20T01:18:36.443Z,99617.41
2022-09-20T01:21:06.387Z,99617.39
2022-09-20T01:23:40.200Z,99617.64
2022-09-20T01:26:38.280Z,99620.23
2022-09-20T01:29:26.877Z,99624.42
2022-09-20T01:31:58.802Z,99624.13
2022-09-20T01:34:33.796Z,99627.23
2022-09-20T01:37:26.686Z,99621.83
2022-09-20T01:40:10.902Z,99620.12
2022-09-20T01:42:50.109Z,99617.78
2022-09-20T01:45:23.922Z,99617.00
2022-09-20T01:48:14.021Z,99612.47
2022-09-20T01:51:12.989Z,99614.27
2022-09-20T01:54:05.536Z,99606.09
2022-09-20T01:56:39.611Z,99605.09
2022-09-20T01:59:24.453Z,99608.67
2022-09-20T02:02:02.155Z,99610.27
2022-09-20T02:04:51.705Z,99607.40
2022-09-20T02:07:40.274Z,99610.19
2022-09-20T02:10:27.005Z,99609.23
2022-09-20T02:13:04.517Z,99611.78
2022-09-20T02:15:47.859Z,99613.95
2022-09-20T02:18:18.764Z,99619.93
2022-09-20T02:20:55.819Z,99619.70
2022-09-20T02:23:26.833Z,99619.08
2022-09-20T02:26:24.121Z,99622.63
2022-09-20T02:29:10.471Z,99619.48
2022-09-20T02:32:15.015Z,99625.25
2022-09-20T02:34:52.237Z,99625.76
2022-09-20T02:37:58.675Z,99625.61
2022-09-20T02:40:54.870Z,99629.46
2022-09-20T02:43:47.308Z,99626.77
2022-09-20T02:46:26.841Z,99636.42
2022-09-20T02:49:15.980Z,99640.69
2022-09-20T02:51:57.213Z,99644.16
2022-09-20T02:54:56.129Z,99644.10
2022-09-20T02:57:50.787Z,99644.66
2022-09-20T03:00:30.390Z,99640.59
2022-09-20T03:03:07.595Z,99640.49
2022-09-20T03:06:07.398Z,99640.48
2022-09-20T03:08:57.238Z,99635.73
2022-09-20T03:11:40.539Z,99642.38
2022-09-20T03:14:23.981Z,99641.86
2022-09-20T03:17:16.790Z,99647.27
2022-09-20T03:20:03.062Z,99649.07
2022-09-20T03:22:57.240Z,99647.77
2022-09-20T03:25:34.451Z,99651.60
2022-09-20T03:28:11.124Z,99649.20
2022-09-20T03:30:50.962Z,99653.00
2022-09-20T03:33:24.693Z,99658.52
2022-09-20T03:36:04.480Z,99661.66
2022-09-20T03:38:52.736Z,99661.20
2022-09-20T03:41:55.438Z,99663.77
2022-09-20T03:45:02.409Z,99663.92
2022-09-20T03:47:51.774Z,99661.00
2022-09-20T03:50:28.216Z,99659.63
2022-09-20T03:53:08.350Z,99665.60
2022-09-20T03:56:06.604Z,99670.75
2022-09-20T03:58:55.873Z,99674.58
2022-09-20T04:01:56.891Z,99669.25
2022-09-20T04:05:03.146Z,99673.80
2022-09-20T04:07:31.101Z,99674.75
2022-09-20T04:10:13.896Z,99676.79
2022-09-20T04:13:08.011Z,99673.06
2022-09-20T04:15:46.573Z,99675.13
2022-09-20T04:18:38.371Z,99670.45
2022-09-20T04:21:06.391Z,99672.41
2022-09-20T04:24:02.505Z,99671.98
2022-09-20T04:26:36.141Z,99669.34
2022-09-20T04:29:26.649Z,99669.36
2022-09-20T04:32:07.587Z,99667.63
2022-09-20T04:35:02.930Z,99673.96
2022-09-20T04:37:39.872Z,99677.31
2022-09-20T04:40:25.015Z,99680.08
2022-09-20T04:43:02.227Z,99687.36
2022-09-20T04:45:39.493Z,99689.82
2022-09-20T04:48:22.930Z,99697.86
2022-09-20T04:51:20.829Z,99701.77
2022-09-20T04:54:04.120Z,99707.18
2022-09-20T04:56:32.605Z,99704.21
2022-09-20T04:59:07.085Z,99705.30
2022-09-20T05:02:09.826Z,99707.40
2022-09-20T05:04:40.901Z,99700.68
2022-09-20T05:07:20.741Z,99701.47
2022-09-20T05:09:54.594Z,99700.75
2022-09-20T05:13:00.601Z,99705.60
2022-09-20T05:15:44.671Z,99713.02
2022-09-20T05:18:34.810Z,99709.86
2022-09-20T05:21:27.470Z,99711.98
2022-09-20T05:24:32.654Z,99710.01
2022-09-20T05:27:11.317Z,99712.23
2022-09-20T05:29:48.330Z,99712.12
2022-09-20T05:32:36.181Z,99715.95
2022-09-20T05:35:07.059Z,99718.41
2022-09-20T05:38:04.681Z,99721.51
2022-09-20T05:40:54.450Z,99720.70
2022-09-20T05:43:35.034Z,99722.59
2022-09-20T05:46:23.633Z,99721.90
2022-09-20T05:48:54.257Z,99724.97
2022-09-20T05:51:31.341Z,99725.33
2022-09-20T05:54:18.382Z,99726.00
2022-09-20T05:57:31.465Z,99726.78
2022-09-20T06:00:10.616Z,99727.44
2022-09-20T06:02:56.988Z,99729.77
2022-09-20T06:05:50.976Z,99733.39
2022-09-20T06:08:38.085Z,99734.95
2022-09-20T06:11:22.426Z,99736.09
2022-09-20T06:14:01.191Z,99735.67
2022-09-20T06:16:49.406Z,99735.63
2022-09-20T06:19:35.198Z,99737.09
2022-09-20T06:22:14.381Z,99734.59
2022-09-20T06:25:07.330Z,99737.06
2022-09-20T06:28:01.498Z,99737.65
2022-09-20T06:30:36.907Z,99738.26
2022-09-20T06:33:19.063Z,99735.56
2022-09-20T06:36:19.532Z,99735.42
2022-09-20T06:39:39.090Z,99734.34
2022-09-20T06:42:10.346Z,99739.00
2022-09-20T06:44:44.309Z,99737.52
2022-09-20T06:47:14.708Z,99737.90
2022-09-20T06:49:42.882Z,99738.27
2022-09-20T06:52:15.986Z,99740.92
2022-09-20T06:54:46.400Z,99738.82
2022-09-20T06:57:23.053Z,99738.39
2022-09-20T06:59:51.030Z,99742.80
2022-09-20T07:02:19.121Z,99741.23
2022-09-20T07:04:47.191Z,99740.92
2022-09-20T07:07:19.439Z,99744.45
2022-09-20T07:09:47.717Z,99747.10
2022-09-20T07:12:15.746Z,99746.52
2022-09-20T07:14:44.451Z,99745.29
2022-09-20T07:17:13.489Z,99741.69
2022-09-20T07:19:41.754Z,99741.84
2022-09-20T07:22:09.909Z,99744.66
2022-09-20T07:24:38.028Z,99746.40
2022-09-20T07:27:06.611Z,99743.70
2022-09-20T07:29:35.468Z,99743.48
2022-09-20T07:32:04.499Z,99740.36
2022-09-20T07:34:32.860Z,99744.92
2022-09-20T07:37:00.885Z,99742.73
2022-09-20T07:39:29.071Z,99739.05
2022-09-20T07:41:57.165Z,99737.95
2022-09-20T07:44:25.256Z,99738.27
2022-09-20T07:47:00.866Z,99736.45
2022-09-20T07:49:32.082Z,99734.75
2022-09-20T07:52:00.110Z,99726.92
2022-09-20T07:54:28.413Z,99722.38
2022-09-20T07:56:56.457Z,99725.98
2022-09-20T07:59:24.532Z,99723.80
2022-09-20T08:01:52.653Z,99720.88
2022-09-20T08:04:20.776Z,99718.68
2022-09-20T08:06:48.800Z,99718.95
2022-09-20T08:09:16.859Z,99714.55
2022-09-20T08:11:46.381Z,99716.52
2022-09-20T08:14:16.874Z,99713.64
2022-09-20T08:16:48.125Z,99714.47
2022-09-20T08:19:19.337Z,99714.31
2022-09-20T08:21:47.866Z,99708.05
2022-09-20T08:24:16.541Z,99707.94
2022-09-20T08:26:45.131Z,99707.55
2022-09-20T08:29:15.276Z,99701.92
2022-09-20T08:31:43.950Z,99701.95
2022-09-20T08:34:15.153Z,99699.58
2022-09-20T08:36:47.126Z,99694.60
2022-09-20T08:42:14.921Z,99696.34
2022-09-20T08:44:59.230Z,99694.64
2022-09-20T08:47:31.457Z,99690.55
2022-09-20T08:50:08.836Z,99689.29
2022-09-20T08:52:40.361Z,99688.22
2022-09-20T08:55:17.723Z,99680.37
2022-09-20T08:57:58.335Z,99680.17
2022-09-20T09:00:31.072Z,99683.74
2022-09-20T09:03:04.834Z,99682.77
2022-09-20T09:05:43.817Z,99682.46
2022-09-20T09:08:25.652Z,99683.20
2022-09-20T09:11:14.881Z,99676.30
2022-09-20T09:13:57.152Z,99676.48
2022-09-20T09:16:35.049Z,99680.30
2022-09-20T09:19:44.237Z,99676.23
2022-09-20T09:22:19.512Z,99678.80
2022-09-20T09:25:07.751Z,99676.71
2022-09-20T09:27:36.518Z,99681.30
2022-09-20T09:30:21.121Z,99679.53
2022-09-20T09:32:49.423Z,99679.51
2022-09-20T09:35:30.804Z,99675.31
2022-09-20T09:38:01.890Z,99674.33
2022-09-20T09:40:32.400Z,99677.60
2022-09-20T09:43:02.855Z,99674.25
2022-09-20T09:45:39.285Z,99677.88
2022-09-20T09:48:20.886Z,99671.96
2022-09-20T09:50:49.099Z,99663.56
2022-09-20T09:53:22.234Z,99670.31
2022-09-20T09:56:13.922Z,99680.34
2022-09-20T09:58:58.585Z,99673.66
2022-09-20T10:01:44.950Z,99678.31
2022-09-20T10:04:38.934Z,99680.39
2022-09-20T10:07:16.107Z,99682.60
2022-09-20T10:09:47.001Z,99680.90
2022-09-20T10:12:33.441Z,99677.04
2022-09-20T10:15:16.353Z,99678.31
2022-09-20T10:18:08.712Z,99682.89
2022-09-20T10:20:42.787Z,99678.65
2022-09-20T10:26:56.140Z,99679.96
2022-09-20T10:29:39.427Z,99676.23
2022-09-20T10:32:27.577Z,99674.30
2022-09-20T10:35:02.471Z,99677.81
2022-09-20T10:38:19.891Z,99680.00
2022-09-20T10:41:09.423Z,99671.95
2022-09-20T10:44:05.597Z,99674.06
2022-09-20T10:46:56.164Z,99672.59
2022-09-20T10:49:41.538Z,99669.95
2022-09-20T10:52:35.267Z,99664.70
2022-09-20T10:55:04.406Z,99669.97
2022-09-20T10:57:46.855Z,99669.55
2022-09-20T11:00:31.476Z,99674.97
2022-09-20T11:03:17.443Z,99675.26
2022-09-20T11:06:27.817Z,99677.54
2022-09-20T11:09:00.021Z,99667.79
2022-09-20T11:12:21.674Z,99673.42
2022-09-20T11:14:56.050Z,99673.09
2022-09-20T11:17:32.000Z,99670.64
2022-09-20T11:20:07.144Z,99674.08
2022-09-20T11:22:51.014Z,99678.58
2022-09-20T11:25:47.132Z,99677.90
2022-09-20T11:28:40.272Z,99677.92
2022-09-20T11:31:31.222Z,99669.59
2022-09-20T11:34:12.793Z,99665.96
2022-09-20T11:36:59.127Z,99672.95
2022-09-20T11:39:42.826Z,99677.02
2022-09-20T11:42:21.135Z,99677.39
2022-09-20T11:44:50.751Z,99676.78
2022-09-20T11:47:52.829Z,99675.90
2022-09-20T11:50:53.294Z,99671.96
2022-09-20T11:53:39.815Z,99667.63
2022-09-20T11:56:20.387Z,99664.92
2022-09-20T11:58:55.313Z,99668.48
2022-09-20T12:01:32.446Z,99665.31
2022-09-20T12:04:32.441Z,99671.89
2022-09-20T12:07:07.444Z,99672.60
2022-09-20T12:09:40.678Z,99679.49
2022-09-20T12:12:31.067Z,99676.20
2022-09-20T12:15:02.542Z,99676.91
2022-09-20T12:17:49.241Z,99672.52
2022-09-20T12:20:42.634Z,99674.20
2022-09-20T12:23:38.836Z,99669.27
2022-09-20T12:26:18.829Z,99667.73
2022-09-20T12:28:50.785Z,99666.73
2022-09-20T12:31:19.221Z,99653.92
2022-09-20T12:34:13.481Z,99657.59
2022-09-20T12:36:43.312Z,99655.55
2022-09-20T12:39:11.280Z,99662.65
2022-09-20T12:42:11.805Z,99657.92
2022-09-20T12:44:49.520Z,99662.81
2022-09-20T12:47:21.234Z,99664.02
2022-09-20T12:50:07.823Z,99657.30
2022-09-20T12:52:50.952Z,99662.02
2022-09-20T12:55:34.017Z,99662.73
2022-09-20T12:58:14.656Z,99663.44
2022-09-20T13:00:46.816Z,99661.07
2022-09-20T13:03:20.259Z,99666.30
2022-09-20T13:06:12.717Z,99661.23
2022-09-20T13:08:59.198Z,99661.65
2022-09-20T13:11:47.807Z,99658.50
2022-09-20T13:14:33.266Z,99657.61
2022-09-20T13:17:19.430Z,99655.48
2022-09-20T13:19:50.143Z,99662.48
2022-09-20T13:22:35.105Z,99661.77
2022-09-20T13:25:07.349Z,99658.93
2022-09-20T13:27:47.104Z,99662.77
2022-09-20T13:30:20.197Z,99660.05
2022-09-20T13:32:50.461Z,99657.98
2022-09-20T13:35:20.061Z,99656.95
2022-09-20T13:37:51.664Z,99663.33
2022-09-20T13:40:32.185Z,99656.34
2022-09-20T13:43:22.511Z,99658.86
2022-09-20T13:45:58.059Z,99665.98
2022-09-20T13:48:28.903Z,99662.40
2022-09-20T13:50:57.738Z,99665.06
2022-09-20T13:53:41.080Z,99664.23
2022-09-20T13:56:21.439Z,99670.41
2022-09-20T13:58:51.526Z,99676.22
2022-09-20T14:01:32.629Z,99674.37
2022-09-20T14:04:07.356Z,99671.69
2022-09-20T14:06:36.249Z,99670.71
2022-09-20T14:09:11.112Z,99667.40
2022-09-20T14:11:41.128Z,99664.80
2022-09-20T14:14:10.622Z,99670.11
2022-09-20T14:16:41.106Z,99668.98
2022-09-20T14:19:09.483Z,99672.11
2022-09-20T14:21:38.341Z,99674.58
2022-09-20T14:24:22.721Z,99674.06
2022-09-20T14:27:03.773Z,99677.77
2022-09-20T14:29:34.906Z,99677.23
2022-09-20T14:32:18.457Z,99678.08
2022-09-20T14:35:01.621Z,99674.88
2022-09-20T14:37:43.720Z,99678.23
2022-09-20T14:40:21.117Z,99681.89
2022-09-20T14:42:58.268Z,99679.54
2022-09-20T14:45:35.283Z,99678.23
2022-09-20T14:48:27.390Z,99679.33
2022-09-20T14:51:25.393Z,99679.06
2022-09-20T14:54:05.377Z,99679.60
2022-09-20T14:56:36.801Z,99683.08
2022-09-20T14:59:23.633Z,99680.30
2022-09-20T15:02:13.510Z,99682.10
2022-09-20T15:04:54.417Z,99684.66
2022-09-20T15:07:22.661Z,99685.76
2022-09-20T15:09:50.676Z,99686.66
2022-09-20T15:12:20.692Z,99686.92
2022-09-20T15:14:49.415Z,99683.98
2022-09-20T15:17:19.915Z,99681.30
2022-09-20T15:19:49.429Z,99685.38
2022-09-20T15:22:17.871Z,99688.64
2022-09-20T15:24:46.058Z,99688.30
2022-09-20T15:27:14.592Z,99685.75
2022-09-20T15:29:42.671Z,99694.76
2022-09-20T15:32:11.312Z,99696.85
2022-09-20T15:34:39.591Z,99697.08
2022-09-20T15:37:07.666Z,99692.73
2022-09-20T15:39:35.758Z,99696.02
2022-09-20T15:42:04.141Z,99699.86
2022-09-20T15:44:32.833Z,99698.45
2022-09-20T15:47:01.848Z,99699.52
2022-09-20T15:49:31.275Z,99702.05
2022-09-20T15:51:59.364Z,99703.73
2022-09-20T15:54:27.385Z,99704.66
2022-09-20T15:56:55.702Z,99708.42
2022-09-20T15:59:23.820Z,99704.14
2022-09-20T16:01:51.954Z,99709.63
2022-09-20T16:04:20.513Z,99710.36
2022-09-20T16:06:50.215Z,99714.61
2022-09-20T16:09:19.969Z,99714.64
2022-09-20T16:11:48.466Z,99715.88
2022-09-20T16:14:16.712Z,99718.96
2022-09-20T16:16:44.815Z,99722.64
2022-09-20T16:19:22.333Z,99727.47
2022-09-20T16:21:58.852Z,99731.11
2022-09-20T16:24:34.191Z,99736.45
2022-09-20T16:27:06.255Z,99738.96
2022-09-20T16:29:34.918Z,99741.23
2022-09-20T16:32:03.849Z,99739.79
2022-09-20T16:34:36.635Z,99738.67
2022-09-20T16:37:17.126Z,99742.28
2022-09-20T16:39:45.166Z,99751.21
2022-09-20T16:42:13.558Z,99755.45
2022-09-20T16:44:43.311Z,99755.45
2022-09-20T16:47:22.354Z,99755.53
2022-09-20T16:49:51.744Z,99760.64
2022-09-20T16:52:20.032Z,99759.16
2022-09-20T16:54:48.187Z,99760.22
2022-09-20T16:57:16.684Z,99764.52
2022-09-20T16:59:46.626Z,99756.45
2022-09-20T17:02:14.676Z,99760.90
2022-09-20T17:04:43.885Z,99765.23
2022-09-20T17:07:12.564Z,99764.79
2022-09-20T17:09:40.630Z,99767.19
2022-09-20T17:12:09.731Z,99768.17
2022-09-20T17:14:37.880Z,99769.48
2022-09-20T17:17:06.618Z,99774.39
2022-09-20T17:19:34.732Z,99771.34
2022-09-20T17:22:02.809Z,99771.22
2022-09-20T17:24:31.005Z,99771.81
2022-09-20T17:26:59.345Z,99774.90
2022-09-20T17:29:27.789Z,99782.12
2022-09-20T17:31:59.887Z,99782.73
2022-09-20T17:34:29.756Z,99786.48
2022-09-20T17:36:58.015Z,99786.38
2022-09-20T17:39:26.409Z,99787.63
2022-09-20T17:41:54.574Z,99795.50
2022-09-20T17:44:22.749Z,99797.33
2022-09-20T17:46:54.220Z,99794.71
2022-09-20T17:49:24.110Z,99797.68
2022-09-20T17:51:55.164Z,99800.49
2022-09-20T17:54:24.766Z,99796.56
2022-09-20T17:56:56.223Z,99798.07
2022-09-20T17:59:24.829Z,99805.70
2022-09-20T18:01:54.589Z,99806.34
2022-09-20T18:04:25.171Z,99811.58
2022-09-20T18:06:54.918Z,99810.52
2022-09-20T18:09:25.545Z,99815.28
2022-09-20T18:11:55.687Z,99819.26
2022-09-20T18:14:27.630Z,99823.95
2022-09-20T18:17:01.140Z,99822.09
2022-09-20T18:19:33.630Z,99825.13
2022-09-20T18:22:03.265Z,99828.09
2022-09-20T18:24:32.205Z,99826.28
2022-09-20T18:27:01.104Z,99828.02
2022-09-20T18:29:33.550Z,99828.16
2022-09-20T18:32:01.885Z,99829.55
2022-09-20T18:34:33.615Z,99831.95
2022-09-20T18:37:03.988Z,99833.45
2022-09-20T18:39:34.890Z,99836.97
2022-09-20T18:42:04.050Z,99837.48
2022-09-20T18:44:34.100Z,99836.13
2022-09-20T18:47:04.398Z,99834.47
2022-09-20T18:49:33.454Z,99838.69
2022-09-20T18:52:02.120Z,99839.32
2022-09-20T18:54:33.500Z,99843.33
2022-09-20T18:57:02.398Z,99840.52
2022-09-20T18:59:30.859Z,99844.48
2022-09-20T19:02:29.023Z,99842.77
2022-09-20T19:05:09.933Z,99844.44
2022-09-20T19:07:50.727Z,99841.33
2022-09-20T19:10:29.808Z,99839.89
2022-09-20T19:13:09.230Z,99842.09
2022-09-20T19:15:56.085Z,99841.34
2022-09-20T19:18:58.847Z,99816.04
2022-09-20T19:21:58.694Z,99843.84
2022-09-20T19:24:56.964Z,99847.33
2022-09-20T19:27:26.367Z,99851.52
2022-09-20T19:29:57.372Z,99852.86
2022-09-20T19:32:27.435Z,99857.27
2022-09-20T19:34:57.374Z,99861.02
2022-09-20T19:37:37.735Z,99864.35
2022-09-20T19:40:29.983Z,99862.48
2022-09-20T19:43:23.955Z,99863.69
2022-09-20T19:46:10.575Z,99858.48
2022-09-20T19:48:45.955Z,99865.06
2022-09-20T19:51:15.421Z,99863.13
2022-09-20T19:53:43.920Z,99867.30
2022-09-20T19:56:27.818Z,99868.60
2022-09-20T19:58:56.455Z,99868.39
2022-09-20T20:01:25.756Z,99871.35
2022-09-20T20:03:54.545Z,99873.00
2022-09-20T20:06:57.990Z,99873.42
2022-09-20T20:09:50.768Z,99872.15
2022-09-20T20:12:30.532Z,99871.53
2022-09-20T20:15:01.436Z,99871.17
2022-09-20T20:18:00.547Z,99873.56
2022-09-20T20:20:37.636Z,99877.36
2022-09-20T20:23:41.273Z,99875.41
2022-09-20T20:26:10.339Z,99878.77
2022-09-20T20:28:38.432Z,99878.91
2022-09-20T20:31:07.320Z,99883.59
2022-09-20T20:33:35.991Z,99888.11
2022-09-20T20:36:12.423Z,99888.33
2022-09-20T20:38:42.046Z,99892.88
2022-09-20T20:41:12.812Z,99888.54
2022-09-20T20:43:42.989Z,99891.88
2022-09-20T20:46:14.454Z,99894.98
2022-09-20T20:48:42.986Z,99892.30
2022-09-20T20:51:17.069Z,99893.69
2022-09-20T20:53:47.175Z,99894.48
2022-09-20T20:56:27.715Z,99894.40
2022-09-20T20:59:00.992Z,99892.08
2022-09-20T21:01:34.384Z,99894.45
2022-09-20T21:04:04.751Z,99896.41
2022-09-20T21:06:34.790Z,99893.53
2022-09-20T21:09:05.159Z,99894.11
2022-09-20T21:11:39.119Z,99894.80
2022-09-20T21:14:07.681Z,99891.63
2022-09-20T21:16:37.788Z,99893.13
2022-09-20T21:19:06.395Z,99888.84
2022-09-20T21:21:38.176Z,99888.51
2022-09-20T21:24:08.071Z,99891.35
2022-09-20T21:26:37.457Z,99894.77
2022-09-20T21:29:08.135Z,99892.30
2022-09-20T21:31:39.153Z,99894.79
2022-09-20T21:34:08.812Z,99890.87
2022-09-20T21:36:38.058Z,99890.64
2022-09-20T21:39:06.734Z,99891.88
2022-09-20T21:41:37.241Z,99890.79
2022-09-20T21:44:06.728Z,99894.29
2022-09-20T21:46:37.255Z,99891.78
2022-09-20T21:49:08.608Z,99893.04
2022-09-20T21:51:38.090Z,99888.20
2022-09-20T21:54:06.429Z,99888.46
2022-09-20T21:56:38.715Z,99887.63
2022-09-20T21:59:07.976Z,99882.63
2022-09-20T22:01:38.731Z,99881.70
2022-09-20T22:04:12.127Z,99879.60
2022-09-20T22:06:44.365Z,99876.98
2022-09-20T22:09:15.525Z,99878.20
2022-09-20T22:11:46.030Z,99882.00
2022-09-20T22:14:16.338Z,99886.91
2022-09-20T22:16:46.862Z,99890.34
2022-09-20T22:19:17.282Z,99891.14
2022-09-20T22:21:51.102Z,99893.89
2022-09-20T22:24:19.430Z,99896.34
2022-09-20T22:26:49.833Z,99896.70
2022-09-20T22:29:18.721Z,99896.70
2022-09-20T22:31:50.171Z,99897.50
2022-09-20T22:34:23.755Z,99899.45
2022-09-20T22:36:52.614Z,99900.20
2022-09-20T22:39:20.657Z,99898.00
2022-09-20T22:41:51.109Z,99896.13
2022-09-20T22:44:19.213Z,99892.92
2022-09-20T22:46:47.267Z,99895.29
2022-09-20T22:49:15.376Z,99895.39
2022-09-20T22:51:43.538Z,99893.23
2022-09-20T22:54:12.334Z,99895.77
2022-09-20T22:56:43.737Z,99896.45
2022-09-20T22:59:14.182Z,99900.30
2022-09-20T23:01:47.091Z,99901.98
2022-09-20T23:04:19.964Z,99900.52
2022-09-20T23:06:54.874Z,99899.73
2022-09-20T23:09:25.564Z,99904.73
2022-09-20T23:11:53.916Z,99905.95
2022-09-20T23:14:23.508Z,99904.24
2022-09-20T23:16:51.723Z,99907.55
2022-09-20T23:19:19.845Z,99905.43
2022-09-20T23:21:47.951Z,99905.58
2022-09-20T23:24:16.846Z,99904.35
2022-09-20T23:26:45.660Z,99905.66
2022-09-20T23:29:16.009Z,99906.52
2022-09-20T23:31:47.142Z,99904.17
2022-09-20T23:34:17.585Z,99903.88
2022-09-20T23:36:46.712Z,99901.67
2022-09-20T23:39:15.432Z,99901.11
2022-09-20T23:41:48.396Z,99900.33
2022-09-20T23:44:19.573Z,99898.26
2022-09-20T23:46:48.253Z,99897.69
2022-09-20T23:49:16.376Z,99900.83
2022-09-20T23:51:44.414Z,99895.15
2022-09-20T23:54:12.670Z,99888.23
2022-09-20T23:56:42.945Z,99891.22
2022-09-20T23:59:11.214Z,99891.52
